Aérodrome :
LOGIN :

S'inscrire | Disclaimer

   EN    FR    IT 

 










Légende :    VFR   VFR Marginal   IFR   IFR Intensif   IFR Très Intensif
Visi : 
Plafond : 
>= 8 km
>= 3000ft
5 à 8 km
1000 à 3000 ft
1500m à 5 km
500 à 1000 ft
800 à 1500m
200 à 500 ft
< 800m
< 200 ft
Symboles :   Orages  Brouillard  Fortes neiges  Fortes précipitations  Vent > 20 kt
SIGMETs :   Divers  Orages  Givrage  Turbulence  Onde Orograph.  Cendres Volcan.







- Altitude de l'aérodrome : 604 ft
- Code IATA : LCJ


EPLL - Lodz

DERNIER METAR :
  • 160230Z 29005KT CAVOK 16/14 Q1013

METARs EXPIRÉS :
  • 160200Z 29005KT 260V320 CAVOK 17/15 Q1013
  • 160130Z 31004KT 280V340 CAVOK 17/16 Q1013
  • 160100Z 30004KT CAVOK 17/16 Q1013
  • 160030Z 29004KT 260V320 CAVOK 17/16 Q1013
  • 160000Z 30003KT 9999 SCT060CB 17/16 Q1013

TAF TAF EPLL
Valide du 16 à 00h jusqu'au 17 à 00h UTC


152330Z 1600/1624 33007KT 9999 BKN030
TEMPO 1600/1624 SHRA BKN012 BKN020CB
PROB40 1603/1607 4000 BR BKN005
PROB40
TEMPO 1611/1618 VRB15G30KT 3000 TSRA
Pas de NOTAMs connus pour ce terrain.
1 SIGMET publié pour la FIR Warszawa (EPWW) :
 
Orages noyés dans la masse
EPWW SIGMET 1 VALID 160145/160400 EPWA
EPWW WARSAW FIR EMBD TS OBS SE OF LINE N5420 E02240 - N5030 E02200 - N4950 E02300 TOP FL370 MOV W INTSF=



MET'MAP, la Météo Aéronautique d'un coup d'oeil ! - Copyright ORBIFLY Décembre 2007 - Disclaimer

ORBIFLY MET'MAP TEAM :

Programmation & Développement : Alexandra Zaïnal
Conception & Développement : Baudouin d'Aumeries
Co-Programmation & Développement : Marc-Olivier Méhu
Soutien technique & logistique : Manuel Goepfert

Contact : metmap@orbifly.com




SOURCES & CREDITS :

   NOAA